sensor_id;sensor_type;location;lat;lon;timestamp;pressure;altitude;pressure_sealevel;temperature;humidity
16255;BME280;8235;52.198;9.904;2022-12-18T00:01:47;102258.06;;;-5.36;83.14
16255;BME280;8235;52.198;9.904;2022-12-18T00:04:18;102264.09;;;-5.38;82.83
16255;BME280;8235;52.198;9.904;2022-12-18T00:06:47;102252.84;;;-5.39;83.00
16255;BME280;8235;52.198;9.904;2022-12-18T00:09:14;102260.63;;;-5.39;82.92
16255;BME280;8235;52.198;9.904;2022-12-18T00:11:41;102254.50;;;-5.41;82.89
16255;BME280;8235;52.198;9.904;2022-12-18T00:14:09;102255.44;;;-5.39;82.87
16255;BME280;8235;52.198;9.904;2022-12-18T00:16:36;102248.53;;;-5.38;83.38
16255;BME280;8235;52.198;9.904;2022-12-18T00:19:04;102256.31;;;-5.38;83.08
16255;BME280;8235;52.198;9.904;2022-12-18T00:21:31;102264.09;;;-5.38;83.36
16255;BME280;8235;52.198;9.904;2022-12-18T00:23:59;102258.91;;;-5.37;83.47
16255;BME280;8235;52.198;9.904;2022-12-18T00:26:28;102266.75;;;-5.35;83.20
16255;BME280;8235;52.198;9.904;2022-12-18T00:28:58;102265.88;;;-5.36;83.11
16255;BME280;8235;52.198;9.904;2022-12-18T00:31:25;102272.81;;;-5.35;83.44
16255;BME280;8235;52.198;9.904;2022-12-18T00:33:53;102275.38;;;-5.36;83.34
16255;BME280;8235;52.198;9.904;2022-12-18T00:36:21;102281.41;;;-5.37;83.42
16255;BME280;8235;52.198;9.904;2022-12-18T00:38:48;102270.16;;;-5.38;83.20
16255;BME280;8235;52.198;9.904;2022-12-18T00:41:17;102271.84;;;-5.40;83.50
16255;BME280;8235;52.198;9.904;2022-12-18T00:44:05;102274.38;;;-5.41;83.26
16255;BME280;8235;52.198;9.904;2022-12-18T00:46:32;102281.25;;;-5.43;83.35
16255;BME280;8235;52.198;9.904;2022-12-18T00:48:58;102288.91;;;-5.48;82.92
16255;BME280;8235;52.198;9.904;2022-12-18T00:51:25;102281.88;;;-5.52;82.82
16255;BME280;8235;52.198;9.904;2022-12-18T00:53:52;102287.84;;;-5.54;82.82
16255;BME280;8235;52.198;9.904;2022-12-18T00:56:20;102296.44;;;-5.57;82.64
16255;BME280;8235;52.198;9.904;2022-12-18T00:58:46;102304.09;;;-5.62;82.67
16255;BME280;8235;52.198;9.904;2022-12-18T01:01:13;102303.03;;;-5.68;82.08
16255;BME280;8235;52.198;9.904;2022-12-18T01:03:40;102286.38;;;-5.76;81.78
16255;BME280;8235;52.198;9.904;2022-12-18T01:06:07;102281.63;;;-5.91;81.27
16255;BME280;8235;52.198;9.904;2022-12-18T01:08:34;102277.75;;;-6.05;80.70
16255;BME280;8235;52.198;9.904;2022-12-18T01:11:06;102275.63;;;-6.18;79.97
16255;BME280;8235;52.198;9.904;2022-12-18T01:13:34;102289.16;;;-6.28;80.02
16255;BME280;8235;52.198;9.904;2022-12-18T01:16:01;102297.53;;;-6.36;79.97
16255;BME280;8235;52.198;9.904;2022-12-18T01:18:27;102296.50;;;-6.41;80.08
16255;BME280;8235;52.198;9.904;2022-12-18T01:20:54;102300.75;;;-6.43;80.54
16255;BME280;8235;52.198;9.904;2022-12-18T01:23:20;102301.56;;;-6.45;80.69
16255;BME280;8235;52.198;9.904;2022-12-18T01:25:46;102302.34;;;-6.48;80.74
16255;BME280;8235;52.198;9.904;2022-12-18T01:28:13;102307.53;;;-6.48;80.90
16255;BME280;8235;52.198;9.904;2022-12-18T01:30:41;102304.06;;;-6.48;80.95
16255;BME280;8235;52.198;9.904;2022-12-18T01:33:07;102305.78;;;-6.49;80.83
16255;BME280;8235;52.198;9.904;2022-12-18T01:35:40;102304.00;;;-6.50;80.99
16255;BME280;8235;52.198;9.904;2022-12-18T01:38:06;102295.34;;;-6.50;80.94
16255;BME280;8235;52.198;9.904;2022-12-18T01:40:33;102295.31;;;-6.52;81.66
16255;BME280;8235;52.198;9.904;2022-12-18T01:43:00;102306.38;;;-6.56;81.59
16255;BME280;8235;52.198;9.904;2022-12-18T01:45:27;102301.03;;;-6.60;81.38
16255;BME280;8235;52.198;9.904;2022-12-18T01:47:58;102313.88;;;-6.65;81.24
16255;BME280;8235;52.198;9.904;2022-12-18T01:50:29;102311.19;;;-6.68;81.41
16255;BME280;8235;52.198;9.904;2022-12-18T01:52:58;102312.84;;;-6.70;81.87
16255;BME280;8235;52.198;9.904;2022-12-18T01:55:28;102313.66;;;-6.71;81.44
16255;BME280;8235;52.198;9.904;2022-12-18T01:57:57;102315.31;;;-6.73;81.89
16255;BME280;8235;52.198;9.904;2022-12-18T02:00:26;102314.44;;;-6.74;82.09
16255;BME280;8235;52.198;9.904;2022-12-18T02:02:53;102306.66;;;-6.74;82.38
16255;BME280;8235;52.198;9.904;2022-12-18T02:05:26;102312.69;;;-6.75;82.24
16255;BME280;8235;52.198;9.904;2022-12-18T02:08:04;102311.78;;;-6.75;82.25
16255;BME280;8235;52.198;9.904;2022-12-18T02:10:37;102314.31;;;-6.77;82.13
16255;BME280;8235;52.198;9.904;2022-12-18T02:13:12;102315.22;;;-6.76;82.18
16255;BME280;8235;52.198;9.904;2022-12-18T02:15:44;102315.16;;;-6.78;82.49
16255;BME280;8235;52.198;9.904;2022-12-18T02:18:18;102315.09;;;-6.79;82.42
16255;BME280;8235;52.198;9.904;2022-12-18T02:20:49;102307.25;;;-6.82;82.46
16255;BME280;8235;52.198;9.904;2022-12-18T02:23:34;102307.19;;;-6.84;83.01
16255;BME280;8235;52.198;9.904;2022-12-18T02:26:15;102305.38;;;-6.86;82.33
16255;BME280;8235;52.198;9.904;2022-12-18T02:28:49;102305.31;;;-6.88;82.83
16255;BME280;8235;52.198;9.904;2022-12-18T02:31:21;102312.22;;;-6.88;82.78
16255;BME280;8235;52.198;9.904;2022-12-18T02:33:50;102304.44;;;-6.88;82.98
16255;BME280;8235;52.198;9.904;2022-12-18T02:36:19;102306.22;;;-6.87;82.99
16255;BME280;8235;52.198;9.904;2022-12-18T02:38:48;102295.84;;;-6.87;82.80
16255;BME280;8235;52.198;9.904;2022-12-18T02:41:18;102292.31;;;-6.89;83.23
16255;BME280;8235;52.198;9.904;2022-12-18T02:43:47;102306.09;;;-6.90;83.14
16255;BME280;8235;52.198;9.904;2022-12-18T02:46:27;102294.84;;;-6.91;82.88
16255;BME280;8235;52.198;9.904;2022-12-18T02:49:01;102293.03;;;-6.93;82.77
16255;BME280;8235;52.198;9.904;2022-12-18T02:51:35;102294.81;;;-6.92;82.87
16255;BME280;8235;52.198;9.904;2022-12-18T02:54:09;102289.69;;;-6.91;83.86
16255;BME280;8235;52.198;9.904;2022-12-18T02:56:42;102291.56;;;-6.87;83.74
16255;BME280;8235;52.198;9.904;2022-12-18T02:59:13;102289.06;;;-6.84;83.54
16255;BME280;8235;52.198;9.904;2022-12-18T03:01:48;102286.66;;;-6.78;84.29
16255;BME280;8235;52.198;9.904;2022-12-18T03:04:21;102287.75;;;-6.71;84.45
16255;BME280;8235;52.198;9.904;2022-12-18T03:06:55;102290.56;;;-6.65;84.13
16255;BME280;8235;52.198;9.904;2022-12-18T03:09:28;102290.69;;;-6.60;84.84
16255;BME280;8235;52.198;9.904;2022-12-18T03:12:04;102290.00;;;-6.55;85.06
16255;BME280;8235;52.198;9.904;2022-12-18T03:14:52;102285.75;;;-6.53;84.99
16255;BME280;8235;52.198;9.904;2022-12-18T03:17:22;102290.13;;;-6.52;85.34
16255;BME280;8235;52.198;9.904;2022-12-18T03:19:52;102287.69;;;-6.47;85.40
16255;BME280;8235;52.198;9.904;2022-12-18T03:22:20;102287.75;;;-6.44;85.83
16255;BME280;8235;52.198;9.904;2022-12-18T03:24:51;102292.22;;;-6.40;85.63
16255;BME280;8235;52.198;9.904;2022-12-18T03:27:20;102277.59;;;-6.38;85.92
16255;BME280;8235;52.198;9.904;2022-12-18T03:29:51;102285.53;;;-6.34;86.12
16255;BME280;8235;52.198;9.904;2022-12-18T03:32:23;102288.31;;;-6.27;86.02
16255;BME280;8235;52.198;9.904;2022-12-18T03:34:53;102289.47;;;-6.18;86.82
16255;BME280;8235;52.198;9.904;2022-12-18T03:37:23;102282.75;;;-6.11;86.39
16255;BME280;8235;52.198;9.904;2022-12-18T03:39:50;102280.38;;;-6.04;87.29
16255;BME280;8235;52.198;9.904;2022-12-18T03:42:25;102295.31;;;-5.97;87.25
16255;BME280;8235;52.198;9.904;2022-12-18T03:44:58;102289.41;;;-5.91;87.14
16255;BME280;8235;52.198;9.904;2022-12-18T03:47:32;102296.47;;;-5.85;86.86
16255;BME280;8235;52.198;9.904;2022-12-18T03:50:10;102289.66;;;-5.82;86.74
16255;BME280;8235;52.198;9.904;2022-12-18T03:52:45;102287.91;;;-5.83;86.54
16255;BME280;8235;52.198;9.904;2022-12-18T03:55:13;102277.56;;;-5.81;86.97
16255;BME280;8235;52.198;9.904;2022-12-18T03:57:42;102276.81;;;-5.77;86.65
16255;BME280;8235;52.198;9.904;2022-12-18T04:00:12;102278.69;;;-5.73;86.98
16255;BME280;8235;52.198;9.904;2022-12-18T04:02:42;102267.56;;;-5.68;87.10
16255;BME280;8235;52.198;9.904;2022-12-18T04:05:11;102268.59;;;-5.63;86.87
16255;BME280;8235;52.198;9.904;2022-12-18T04:07:39;102271.38;;;-5.56;87.01
16255;BME280;8235;52.198;9.904;2022-12-18T04:10:08;102286.16;;;-5.52;86.97
16255;BME280;8235;52.198;9.904;2022-12-18T04:12:37;102293.16;;;-5.50;86.80
16255;BME280;8235;52.198;9.904;2022-12-18T04:15:06;102291.59;;;-5.45;86.78
16255;BME280;8235;52.198;9.904;2022-12-18T04:17:33;102283.81;;;-5.45;86.28
16255;BME280;8235;52.198;9.904;2022-12-18T04:19:59;102289.75;;;-5.49;86.53
16255;BME280;8235;52.198;9.904;2022-12-18T04:22:26;102294.78;;;-5.53;86.07
16255;BME280;8235;52.198;9.904;2022-12-18T04:24:53;102299.03;;;-5.57;86.40
16255;BME280;8235;52.198;9.904;2022-12-18T04:27:19;102301.50;;;-5.62;86.12
16255;BME280;8235;52.198;9.904;2022-12-18T04:29:46;102290.97;;;-5.66;85.71
16255;BME280;8235;52.198;9.904;2022-12-18T04:32:13;102296.84;;;-5.73;85.61
16255;BME280;8235;52.198;9.904;2022-12-18T04:34:40;102301.09;;;-5.75;85.53
16255;BME280;8235;52.198;9.904;2022-12-18T04:37:06;102301.69;;;-5.84;85.65
16255;BME280;8235;52.198;9.904;2022-12-18T04:39:33;102302.38;;;-5.91;85.25
16255;BME280;8235;52.198;9.904;2022-12-18T04:42:00;102293.56;;;-5.98;84.78
16255;BME280;8235;52.198;9.904;2022-12-18T04:44:27;102285.56;;;-6.04;84.76
16255;BME280;8235;52.198;9.904;2022-12-18T04:46:54;102285.41;;;-6.10;84.78
16255;BME280;8235;52.198;9.904;2022-12-18T04:49:22;102293.88;;;-6.15;84.19
16255;BME280;8235;52.198;9.904;2022-12-18T04:51:48;102288.53;;;-6.20;84.14
16255;BME280;8235;52.198;9.904;2022-12-18T04:54:15;102287.56;;;-6.23;84.15
16255;BME280;8235;52.198;9.904;2022-12-18T04:56:42;102284.91;;;-6.25;83.96
16255;BME280;8235;52.198;9.904;2022-12-18T04:59:08;102284.97;;;-6.23;83.97
16255;BME280;8235;52.198;9.904;2022-12-18T05:01:35;102280.69;;;-6.21;84.40
16255;BME280;8235;52.198;9.904;2022-12-18T05:04:01;102283.50;;;-6.15;84.19
16255;BME280;8235;52.198;9.904;2022-12-18T05:06:29;102279.50;;;-6.04;84.61
16255;BME280;8235;52.198;9.904;2022-12-18T05:08:56;102279.78;;;-5.95;85.05
16255;BME280;8235;52.198;9.904;2022-12-18T05:11:23;102282.56;;;-5.87;85.30
16255;BME280;8235;52.198;9.904;2022-12-18T05:13:52;102278.44;;;-5.81;85.11
16255;BME280;8235;52.198;9.904;2022-12-18T05:16:18;102289.84;;;-5.76;84.77
16255;BME280;8235;52.198;9.904;2022-12-18T05:18:45;102294.25;;;-5.73;85.01
16255;BME280;8235;52.198;9.904;2022-12-18T05:21:12;102303.75;;;-5.72;85.27
16255;BME280;8235;52.198;9.904;2022-12-18T05:23:40;102295.97;;;-5.74;85.15
16255;BME280;8235;52.198;9.904;2022-12-18T05:26:06;102295.09;;;-5.74;85.06
16255;BME280;8235;52.198;9.904;2022-12-18T05:28:35;102300.28;;;-5.74;84.25
16255;BME280;8235;52.198;9.904;2022-12-18T05:31:02;102298.50;;;-5.75;84.61
16255;BME280;8235;52.198;9.904;2022-12-18T05:33:31;102306.25;;;-5.77;84.46
16255;BME280;8235;52.198;9.904;2022-12-18T05:35:59;102300.97;;;-5.80;84.12
16255;BME280;8235;52.198;9.904;2022-12-18T05:38:27;102302.63;;;-5.82;84.12
16255;BME280;8235;52.198;9.904;2022-12-18T05:40:56;102304.28;;;-5.84;84.37
16255;BME280;8235;52.198;9.904;2022-12-18T05:43:23;102306.84;;;-5.85;84.36
16255;BME280;8235;52.198;9.904;2022-12-18T05:45:51;102306.84;;;-5.85;84.32
16255;BME280;8235;52.198;9.904;2022-12-18T05:48:18;102310.22;;;-5.88;84.19
16255;BME280;8235;52.198;9.904;2022-12-18T05:50:46;102319.69;;;-5.90;84.21
16255;BME280;8235;52.198;9.904;2022-12-18T05:53:13;102317.03;;;-5.93;83.81
16255;BME280;8235;52.198;9.904;2022-12-18T05:55:41;102316.06;;;-5.97;83.78
16255;BME280;8235;52.198;9.904;2022-12-18T05:58:11;102328.88;;;-6.01;83.66
16255;BME280;8235;52.198;9.904;2022-12-18T06:00:41;102329.56;;;-6.07;83.89
16255;BME280;8235;52.198;9.904;2022-12-18T06:03:09;102337.28;;;-6.10;83.68
16255;BME280;8235;52.198;9.904;2022-12-18T06:05:36;102333.66;;;-6.15;83.56
16255;BME280;8235;52.198;9.904;2022-12-18T06:08:03;102331.84;;;-6.17;83.40
16255;BME280;8235;52.198;9.904;2022-12-18T06:10:29;102337.75;;;-6.21;83.32
16255;BME280;8235;52.198;9.904;2022-12-18T06:12:56;102337.66;;;-6.24;82.90
16255;BME280;8235;52.198;9.904;2022-12-18T06:15:24;102334.88;;;-6.31;82.67
16255;BME280;8235;52.198;9.904;2022-12-18T06:17:51;102332.19;;;-6.34;83.12
16255;BME280;8235;52.198;9.904;2022-12-18T06:20:17;102340.69;;;-6.38;82.58
16255;BME280;8235;52.198;9.904;2022-12-18T06:22:44;102333.63;;;-6.42;82.60
16255;BME280;8235;52.198;9.904;2022-12-18T06:25:10;102343.91;;;-6.45;82.63
16255;BME280;8235;52.198;9.904;2022-12-18T06:27:37;102339.47;;;-6.49;82.36
16255;BME280;8235;52.198;9.904;2022-12-18T06:30:04;102328.31;;;-6.46;82.53
16255;BME280;8235;52.198;9.904;2022-12-18T06:32:32;102332.06;;;-6.37;82.95
16255;BME280;8235;52.198;9.904;2022-12-18T06:34:59;102328.09;;;-6.27;83.11
16255;BME280;8235;52.198;9.904;2022-12-18T06:37:25;102333.59;;;-6.16;83.16
16255;BME280;8235;52.198;9.904;2022-12-18T06:39:52;102326.03;;;-6.10;83.56
16255;BME280;8235;52.198;9.904;2022-12-18T06:42:19;102337.34;;;-6.07;83.64
16255;BME280;8235;52.198;9.904;2022-12-18T06:44:45;102329.63;;;-6.05;83.57
16255;BME280;8235;52.198;9.904;2022-12-18T06:47:12;102329.66;;;-6.04;84.16
16255;BME280;8235;52.198;9.904;2022-12-18T06:49:40;102333.13;;;-6.03;83.70
16255;BME280;8235;52.198;9.904;2022-12-18T06:52:06;102342.69;;;-6.02;83.66
16255;BME280;8235;52.198;9.904;2022-12-18T06:54:33;102342.69;;;-6.02;83.68
16255;BME280;8235;52.198;9.904;2022-12-18T06:56:59;102340.09;;;-6.02;83.90
16255;BME280;8235;52.198;9.904;2022-12-18T06:59:26;102335.72;;;-6.03;83.79
16255;BME280;8235;52.198;9.904;2022-12-18T07:01:53;102337.44;;;-6.04;83.69
16255;BME280;8235;52.198;9.904;2022-12-18T07:04:19;102348.69;;;-6.03;83.64
16255;BME280;8235;52.198;9.904;2022-12-18T07:06:47;102342.59;;;-6.05;83.60
16255;BME280;8235;52.198;9.904;2022-12-18T07:09:14;102348.69;;;-6.03;83.39
16255;BME280;8235;52.198;9.904;2022-12-18T07:11:40;102357.31;;;-6.04;83.91
16255;BME280;8235;52.198;9.904;2022-12-18T07:14:07;102353.06;;;-6.02;83.88
16255;BME280;8235;52.198;9.904;2022-12-18T07:16:33;102357.38;;;-6.03;83.63
16255;BME280;8235;52.198;9.904;2022-12-18T07:19:00;102349.63;;;-6.01;83.57
16255;BME280;8235;52.198;9.904;2022-12-18T07:21:26;102360.94;;;-5.99;83.66
16255;BME280;8235;52.198;9.904;2022-12-18T07:23:54;102367.00;;;-5.99;83.78
16255;BME280;8235;52.198;9.904;2022-12-18T07:26:21;102364.53;;;-5.96;83.60
16255;BME280;8235;52.198;9.904;2022-12-18T07:28:48;102368.09;;;-5.92;83.79
16255;BME280;8235;52.198;9.904;2022-12-18T07:31:17;102375.13;;;-5.86;83.77
16255;BME280;8235;52.198;9.904;2022-12-18T07:33:44;102380.41;;;-5.83;83.93
16255;BME280;8235;52.198;9.904;2022-12-18T07:36:12;102382.19;;;-5.82;83.81
16255;BME280;8235;52.198;9.904;2022-12-18T07:38:38;102379.69;;;-5.79;84.15
16255;BME280;8235;52.198;9.904;2022-12-18T07:41:08;102379.84;;;-5.75;84.01
16255;BME280;8235;52.198;9.904;2022-12-18T07:43:35;102389.50;;;-5.69;83.84
16255;BME280;8235;52.198;9.904;2022-12-18T07:46:03;102396.56;;;-5.65;84.27
16255;BME280;8235;52.198;9.904;2022-12-18T07:48:29;102396.69;;;-5.61;84.18
16255;BME280;8235;52.198;9.904;2022-12-18T07:50:58;102399.44;;;-5.56;84.17
16255;BME280;8235;52.198;9.904;2022-12-18T07:53:25;102394.38;;;-5.51;84.38
16255;BME280;8235;52.198;9.904;2022-12-18T07:55:55;102390.19;;;-5.46;84.23
16255;BME280;8235;52.198;9.904;2022-12-18T07:58:22;102389.41;;;-5.44;84.76
16255;BME280;8235;52.198;9.904;2022-12-18T08:00:49;102380.88;;;-5.40;84.35
16255;BME280;8235;52.198;9.904;2022-12-18T08:03:16;102372.38;;;-5.34;84.55
16255;BME280;8235;52.198;9.904;2022-12-18T08:05:42;102372.50;;;-5.30;84.48
16255;BME280;8235;52.198;9.904;2022-12-18T08:08:09;102372.59;;;-5.27;84.61
16255;BME280;8235;52.198;9.904;2022-12-18T08:10:37;102370.06;;;-5.25;84.50
16255;BME280;8235;52.198;9.904;2022-12-18T08:13:03;102369.31;;;-5.21;84.63
16255;BME280;8235;52.198;9.904;2022-12-18T08:15:31;102373.69;;;-5.20;84.67
16255;BME280;8235;52.198;9.904;2022-12-18T08:17:58;102365.09;;;-5.16;84.66
16255;BME280;8235;52.198;9.904;2022-12-18T08:20:25;102359.97;;;-5.14;84.60
16255;BME280;8235;52.198;9.904;2022-12-18T08:22:51;102361.75;;;-5.12;84.71
16255;BME280;8235;52.198;9.904;2022-12-18T08:25:19;102354.91;;;-5.10;84.68
16255;BME280;8235;52.198;9.904;2022-12-18T08:27:45;102355.00;;;-5.07;84.67
16255;BME280;8235;52.198;9.904;2022-12-18T08:30:12;102347.28;;;-5.04;84.86
16255;BME280;8235;52.198;9.904;2022-12-18T08:32:40;102343.00;;;-5.02;84.55
16255;BME280;8235;52.198;9.904;2022-12-18T08:35:08;102342.19;;;-4.99;84.67
16255;BME280;8235;52.198;9.904;2022-12-18T08:37:37;102337.91;;;-4.97;84.82
16255;BME280;8235;52.198;9.904;2022-12-18T08:40:04;102347.59;;;-4.92;85.13
16255;BME280;8235;52.198;9.904;2022-12-18T08:42:31;102338.25;;;-4.85;85.06
16255;BME280;8235;52.198;9.904;2022-12-18T08:45:16;102337.56;;;-4.78;85.07
16255;BME280;8235;52.198;9.904;2022-12-18T08:47:44;102332.53;;;-4.72;84.93
16255;BME280;8235;52.198;9.904;2022-12-18T08:50:11;102326.63;;;-4.66;85.21
16255;BME280;8235;52.198;9.904;2022-12-18T08:52:38;102330.25;;;-4.60;85.14
16255;BME280;8235;52.198;9.904;2022-12-18T08:55:05;102314.81;;;-4.53;85.11
16255;BME280;8235;52.198;9.904;2022-12-18T08:57:35;102325.31;;;-4.49;85.03
16255;BME280;8235;52.198;9.904;2022-12-18T09:00:02;102337.56;;;-4.43;85.21
16255;BME280;8235;52.198;9.904;2022-12-18T09:02:28;102341.25;;;-4.35;84.79
16255;BME280;8235;52.198;9.904;2022-12-18T09:04:56;102334.47;;;-4.30;84.97
16255;BME280;8235;52.198;9.904;2022-12-18T09:07:23;102328.66;;;-4.18;84.45
16255;BME280;8235;52.198;9.904;2022-12-18T09:09:49;102338.38;;;-4.10;84.38
16255;BME280;8235;52.198;9.904;2022-12-18T09:12:16;102342.09;;;-4.00;83.97
16255;BME280;8235;52.198;9.904;2022-12-18T09:14:45;102326.59;;;-3.96;83.87
16255;BME280;8235;52.198;9.904;2022-12-18T09:17:12;102326.69;;;-3.91;83.62
16255;BME280;8235;52.198;9.904;2022-12-18T09:19:38;102322.50;;;-3.85;83.48
16255;BME280;8235;52.198;9.904;2022-12-18T09:22:06;102321.72;;;-3.80;83.54
16255;BME280;8235;52.198;9.904;2022-12-18T09:24:33;102323.59;;;-3.73;83.18
16255;BME280;8235;52.198;9.904;2022-12-18T09:27:00;102319.34;;;-3.70;83.21
16255;BME280;8235;52.198;9.904;2022-12-18T09:29:26;102309.91;;;-3.65;83.20
16255;BME280;8235;52.198;9.904;2022-12-18T09:31:52;102320.47;;;-3.59;82.96
16255;BME280;8235;52.198;9.904;2022-12-18T09:34:19;102312.75;;;-3.53;82.72
16255;BME280;8235;52.198;9.904;2022-12-18T09:36:47;102318.97;;;-3.47;82.75
16255;BME280;8235;52.198;9.904;2022-12-18T09:39:14;102319.94;;;-3.42;82.76
16255;BME280;8235;52.198;9.904;2022-12-18T09:41:44;102310.44;;;-3.40;82.28
16255;BME280;8235;52.198;9.904;2022-12-18T09:44:18;102316.56;;;-3.37;82.42
16255;BME280;8235;52.198;9.904;2022-12-18T09:46:49;102324.41;;;-3.35;82.14
16255;BME280;8235;52.198;9.904;2022-12-18T09:49:21;102321.00;;;-3.33;82.23
16255;BME280;8235;52.198;9.904;2022-12-18T09:51:52;102327.16;;;-3.29;81.85
16255;BME280;8235;52.198;9.904;2022-12-18T09:54:25;102333.31;;;-3.26;82.14
16255;BME280;8235;52.198;9.904;2022-12-18T09:56:52;102325.56;;;-3.23;82.17
16255;BME280;8235;52.198;9.904;2022-12-18T09:59:24;102331.69;;;-3.19;81.96
16255;BME280;8235;52.198;9.904;2022-12-18T10:01:51;102340.47;;;-3.14;81.79
16255;BME280;8235;52.198;9.904;2022-12-18T10:04:18;102345.81;;;-3.08;81.68
16255;BME280;8235;52.198;9.904;2022-12-18T10:06:50;102345.09;;;-2.99;81.58
16255;BME280;8235;52.198;9.904;2022-12-18T10:09:30;102344.41;;;-2.91;81.63
16255;BME280;8235;52.198;9.904;2022-12-18T10:12:07;102331.59;;;-2.78;81.65
16255;BME280;8235;52.198;9.904;2022-12-18T10:14:40;102332.63;;;-2.67;81.54
16255;BME280;8235;52.198;9.904;2022-12-18T10:17:17;102331.97;;;-2.57;80.82
16255;BME280;8235;52.198;9.904;2022-12-18T10:19:51;102327.78;;;-2.46;80.17
16255;BME280;8235;52.198;9.904;2022-12-18T10:22:26;102335.78;;;-2.37;79.79
16255;BME280;8235;52.198;9.904;2022-12-18T10:25:02;102331.59;;;-2.26;79.19
16255;BME280;8235;52.198;9.904;2022-12-18T10:27:30;102326.53;;;-2.18;78.71
16255;BME280;8235;52.198;9.904;2022-12-18T10:29:57;102330.09;;;-2.12;78.25
16255;BME280;8235;52.198;9.904;2022-12-18T10:32:25;102327.56;;;-2.07;77.82
16255;BME280;8235;52.198;9.904;2022-12-18T10:34:53;102328.47;;;-2.03;77.54
16255;BME280;8235;52.198;9.904;2022-12-18T10:37:21;102318.16;;;-1.97;77.05
16255;BME280;8235;52.198;9.904;2022-12-18T10:40:08;102314.69;;;-1.93;76.68
16255;BME280;8235;52.198;9.904;2022-12-18T10:42:36;102323.47;;;-1.88;76.08
16255;BME280;8235;52.198;9.904;2022-12-18T10:45:10;102327.94;;;-1.83;75.98
16255;BME280;8235;52.198;9.904;2022-12-18T10:47:42;102335.81;;;-1.78;75.88
16255;BME280;8235;52.198;9.904;2022-12-18T10:50:19;102328.00;;;-1.75;75.52
16255;BME280;8235;52.198;9.904;2022-12-18T10:52:54;102316.75;;;-1.71;75.41
16255;BME280;8235;52.198;9.904;2022-12-18T10:55:22;102325.53;;;-1.66;75.16
16255;BME280;8235;52.198;9.904;2022-12-18T10:57:50;102316.91;;;-1.62;74.84
16255;BME280;8235;52.198;9.904;2022-12-18T11:00:25;102315.16;;;-1.60;74.82
16255;BME280;8235;52.198;9.904;2022-12-18T11:02:53;102312.59;;;-1.55;74.06
16255;BME280;8235;52.198;9.904;2022-12-18T11:05:27;102301.34;;;-1.51;73.86
16255;BME280;8235;52.198;9.904;2022-12-18T11:07:53;102297.03;;;-1.48;73.80
16255;BME280;8235;52.198;9.904;2022-12-18T11:10:23;102299.69;;;-1.45;73.86
16255;BME280;8235;52.198;9.904;2022-12-18T11:12:51;102295.34;;;-1.43;73.82
16255;BME280;8235;52.198;9.904;2022-12-18T11:15:20;102276.22;;;-1.40;73.30
16255;BME280;8235;52.198;9.904;2022-12-18T11:17:53;102278.88;;;-1.35;73.08
16255;BME280;8235;52.198;9.904;2022-12-18T11:20:25;102267.63;;;-1.30;73.01
16255;BME280;8235;52.198;9.904;2022-12-18T11:22:57;102277.25;;;-1.24;72.96
16255;BME280;8235;52.198;9.904;2022-12-18T11:25:26;102286.00;;;-1.21;72.78
16255;BME280;8235;52.198;9.904;2022-12-18T11:27:55;102284.28;;;-1.19;72.41
16255;BME280;8235;52.198;9.904;2022-12-18T11:30:24;102284.34;;;-1.14;71.94
16255;BME280;8235;52.198;9.904;2022-12-18T11:32:58;102287.00;;;-1.13;71.54
16255;BME280;8235;52.198;9.904;2022-12-18T11:35:34;102287.91;;;-1.09;71.44
16255;BME280;8235;52.198;9.904;2022-12-18T11:38:12;102287.91;;;-1.09;70.68
16255;BME280;8235;52.198;9.904;2022-12-18T11:40:45;102275.69;;;-1.07;70.28
16255;BME280;8235;52.198;9.904;2022-12-18T11:43:17;102269.63;;;-1.08;70.25
16255;BME280;8235;52.198;9.904;2022-12-18T11:45:49;102278.34;;;-1.04;69.72
16255;BME280;8235;52.198;9.904;2022-12-18T11:48:21;102267.03;;;-1.01;68.86
16255;BME280;8235;52.198;9.904;2022-12-18T11:50:50;102260.13;;;-0.98;68.92
16255;BME280;8235;52.198;9.904;2022-12-18T11:53:18;102251.44;;;-0.95;68.64
16255;BME280;8235;52.198;9.904;2022-12-18T11:56:11;102249.75;;;-0.90;68.47
16255;BME280;8235;52.198;9.904;2022-12-18T11:58:46;102248.00;;;-0.87;68.49
16255;BME280;8235;52.198;9.904;2022-12-18T12:01:31;102231.47;;;-0.84;68.42
16255;BME280;8235;52.198;9.904;2022-12-18T12:04:32;102221.91;;;-0.81;67.98
16255;BME280;8235;52.198;9.904;2022-12-18T12:07:10;102216.69;;;-0.79;68.04
16255;BME280;8235;52.198;9.904;2022-12-18T12:09:56;102211.47;;;-0.78;67.95
16255;BME280;8235;52.198;9.904;2022-12-18T12:12:34;102202.78;;;-0.74;67.86
16255;BME280;8235;52.198;9.904;2022-12-18T12:15:26;102203.66;;;-0.73;67.61
16255;BME280;8235;52.198;9.904;2022-12-18T12:17:59;102192.34;;;-0.74;67.17
16255;BME280;8235;52.198;9.904;2022-12-18T12:20:39;102195.81;;;-0.70;66.85
16255;BME280;8235;52.198;9.904;2022-12-18T12:23:16;102187.97;;;-0.70;66.59
16255;BME280;8235;52.198;9.904;2022-12-18T12:26:01;102187.97;;;-0.70;66.52
16255;BME280;8235;52.198;9.904;2022-12-18T12:28:48;102186.22;;;-0.70;65.74
16255;BME280;8235;52.198;9.904;2022-12-18T12:31:31;102183.63;;;-0.73;65.50
16255;BME280;8235;52.198;9.904;2022-12-18T12:34:08;102183.63;;;-0.73;65.40
16255;BME280;8235;52.198;9.904;2022-12-18T12:36:47;102180.13;;;-0.75;65.37
16255;BME280;8235;52.198;9.904;2022-12-18T12:39:23;102186.22;;;-0.74;65.33
16255;BME280;8235;52.198;9.904;2022-12-18T12:41:56;102174.00;;;-0.77;64.80
16255;BME280;8235;52.198;9.904;2022-12-18T12:44:45;102167.88;;;-0.79;65.01
16255;BME280;8235;52.198;9.904;2022-12-18T12:47:29;102168.72;;;-0.81;65.37
16255;BME280;8235;52.198;9.904;2022-12-18T12:50:01;102166.06;;;-0.84;65.68
16255;BME280;8235;52.198;9.904;2022-12-18T12:52:34;102169.53;;;-0.88;66.10
16255;BME280;8235;52.198;9.904;2022-12-18T12:55:05;102165.16;;;-0.91;66.39
16255;BME280;8235;52.198;9.904;2022-12-18T12:57:34;102149.44;;;-0.95;66.85
16255;BME280;8235;52.198;9.904;2022-12-18T13:00:13;102144.16;;;-1.00;67.23
16255;BME280;8235;52.198;9.904;2022-12-18T13:02:50;102137.16;;;-1.04;67.33
16255;BME280;8235;52.198;9.904;2022-12-18T13:05:24;102148.47;;;-1.08;67.49
16255;BME280;8235;52.198;9.904;2022-12-18T13:07:54;102160.63;;;-1.13;67.92
16255;BME280;8235;52.198;9.904;2022-12-18T13:10:25;102162.31;;;-1.18;68.08
16255;BME280;8235;52.198;9.904;2022-12-18T13:12:56;102156.16;;;-1.23;68.58
16255;BME280;8235;52.198;9.904;2022-12-18T13:15:26;102148.31;;;-1.26;68.80